createdAt,value
2022-09-15T00:00:26.847Z,341.20
2022-09-15T00:01:26.914Z,341.80
2022-09-15T00:02:26.976Z,347.00
2022-09-15T00:03:26.808Z,343.40
2022-09-15T00:04:26.785Z,344.80
2022-09-15T00:05:26.790Z,342.90
2022-09-15T00:06:26.794Z,352.30
2022-09-15T00:07:26.834Z,345.70
2022-09-15T00:08:26.751Z,347.20
2022-09-15T00:09:26.785Z,353.90
2022-09-15T00:10:26.714Z,346.30
2022-09-15T00:11:26.736Z,350.80
2022-09-15T00:12:26.755Z,347.60
2022-09-15T00:13:26.744Z,352.10
2022-09-15T00:14:26.699Z,346.10
2022-09-15T00:15:26.680Z,360.80
2022-09-15T00:16:26.701Z,352.40
2022-09-15T00:17:26.708Z,353.10
2022-09-15T00:18:26.661Z,353.40
2022-09-15T00:19:26.647Z,343.80
2022-09-15T00:20:26.633Z,360.30
2022-09-15T00:21:26.627Z,353.20
2022-09-15T00:22:26.638Z,342.80
2022-09-15T00:23:26.578Z,349.00
2022-09-15T00:24:26.570Z,362.80
2022-09-15T00:25:26.583Z,364.10
2022-09-15T00:26:26.555Z,375.30
2022-09-15T00:27:26.581Z,368.60
2022-09-15T00:28:26.541Z,365.50
2022-09-15T00:29:26.528Z,371.80
2022-09-15T00:30:26.559Z,369.50
2022-09-15T00:31:26.549Z,362.60
2022-09-15T00:32:26.518Z,361.80
2022-09-15T00:33:26.473Z,391.40
2022-09-15T00:34:26.448Z,393.70
2022-09-15T00:35:26.438Z,398.00
2022-09-15T00:36:26.438Z,407.60
2022-09-15T00:37:26.454Z,408.60
2022-09-15T00:38:26.415Z,410.50
2022-09-15T00:39:26.463Z,417.50
2022-09-15T00:40:26.462Z,422.50
2022-09-15T00:41:26.375Z,429.20
2022-09-15T00:42:26.400Z,429.10
2022-09-15T00:43:26.358Z,432.10
2022-09-15T00:44:26.355Z,424.80
2022-09-15T00:45:26.357Z,428.10
2022-09-15T00:46:26.324Z,430.80
2022-09-15T00:47:26.371Z,429.50
2022-09-15T00:48:26.314Z,431.60
2022-09-15T00:49:26.291Z,429.20
2022-09-15T00:50:26.295Z,426.70
2022-09-15T00:51:26.281Z,421.80
2022-09-15T00:52:26.295Z,419.30
2022-09-15T00:53:26.255Z,412.70
2022-09-15T00:54:26.277Z,403.00
2022-09-15T00:55:26.246Z,407.70
2022-09-15T00:56:26.212Z,405.90
2022-09-15T00:57:26.237Z,402.10
2022-09-15T00:58:26.201Z,396.70
2022-09-15T00:59:26.178Z,400.90
2022-09-15T01:00:26.175Z,412.30
2022-09-15T01:01:26.194Z,418.00
2022-09-15T01:02:26.247Z,409.30
2022-09-15T01:03:26.138Z,415.60
2022-09-15T01:04:26.138Z,414.80
2022-09-15T01:05:26.112Z,427.20
2022-09-15T01:06:26.080Z,436.00
2022-09-15T01:07:26.102Z,427.80
2022-09-15T01:08:26.060Z,428.40
2022-09-15T01:09:26.065Z,420.30
2022-09-15T01:10:26.057Z,428.50
2022-09-15T01:11:26.048Z,428.20
2022-09-15T01:12:26.084Z,432.10
2022-09-15T01:13:26.031Z,433.80
2022-09-15T01:14:26.018Z,436.50
2022-09-15T01:15:25.983Z,421.10
2022-09-15T01:16:26.062Z,395.40
2022-09-15T01:17:26.015Z,368.30
2022-09-15T01:18:25.982Z,338.20
2022-09-15T01:19:25.951Z,299.90
2022-09-15T01:20:25.958Z,291.30
2022-09-15T01:21:25.933Z,266.90
2022-09-15T01:22:25.963Z,259.20
2022-09-15T01:23:25.913Z,248.20
2022-09-15T01:24:25.908Z,246.30
2022-09-15T01:25:25.897Z,249.80
2022-09-15T01:26:25.878Z,270.60
2022-09-15T01:27:41.609Z,276.20
2022-09-15T01:28:26.855Z,312.80
2022-09-15T01:29:25.858Z,358.30
2022-09-15T01:30:25.834Z,382.50
2022-09-15T01:31:25.894Z,374.40
2022-09-15T01:32:25.845Z,385.40
2022-09-15T01:33:25.791Z,383.50
2022-09-15T01:34:25.804Z,367.20
2022-09-15T01:35:25.766Z,365.70
2022-09-15T01:36:25.779Z,360.80
2022-09-15T01:37:25.798Z,355.30
2022-09-15T01:38:25.738Z,328.00
2022-09-15T01:39:25.741Z,336.10
2022-09-15T01:40:25.795Z,338.80
2022-09-15T01:41:25.702Z,348.50
2022-09-15T01:42:25.737Z,362.50
2022-09-15T01:43:25.682Z,362.10
2022-09-15T01:44:25.686Z,351.50
2022-09-15T01:45:25.678Z,350.40
2022-09-15T01:46:25.646Z,339.20
2022-09-15T01:47:25.668Z,346.30
2022-09-15T01:48:25.632Z,359.50
2022-09-15T01:49:25.626Z,363.90
2022-09-15T01:50:25.609Z,351.60
2022-09-15T01:51:25.583Z,343.30
2022-09-15T01:52:25.636Z,330.00
2022-09-15T01:53:25.565Z,325.80
2022-09-15T01:54:25.579Z,312.20
2022-09-15T01:55:25.549Z,309.40
2022-09-15T01:56:25.548Z,310.00
2022-09-15T01:57:25.583Z,316.90
2022-09-15T01:58:25.526Z,313.90
2022-09-15T01:59:25.505Z,302.50
2022-09-15T02:00:25.491Z,284.10
2022-09-15T02:01:25.563Z,291.00
2022-09-15T02:02:25.566Z,272.40
2022-09-15T02:03:25.460Z,261.30
2022-09-15T02:04:25.465Z,247.40
2022-09-15T02:05:25.454Z,246.70
2022-09-15T02:06:25.426Z,240.50
2022-09-15T02:07:25.447Z,235.60
2022-09-15T02:08:25.455Z,231.00
2022-09-15T02:09:25.384Z,229.60
2022-09-15T02:10:25.380Z,230.80
2022-09-15T02:11:25.345Z,227.80
2022-09-15T02:12:25.395Z,226.80
2022-09-15T02:13:25.349Z,226.50
2022-09-15T02:14:25.358Z,228.50
2022-09-15T02:15:25.326Z,229.90
2022-09-15T02:16:25.372Z,228.80
2022-09-15T02:17:25.325Z,225.10
2022-09-15T02:18:25.291Z,230.80
2022-09-15T02:19:25.282Z,225.80
2022-09-15T02:20:25.269Z,228.60
2022-09-15T02:21:25.265Z,237.90
2022-09-15T02:22:25.298Z,239.40
2022-09-15T02:23:25.227Z,250.20
2022-09-15T02:24:25.231Z,251.20
2022-09-15T02:25:25.232Z,254.60
2022-09-15T02:26:25.212Z,264.70
2022-09-15T02:27:25.244Z,256.60
2022-09-15T02:28:25.189Z,258.90
2022-09-15T02:29:25.161Z,259.80
2022-09-15T02:30:25.152Z,246.50
2022-09-15T02:31:25.210Z,243.50
2022-09-15T02:32:25.178Z,242.50
2022-09-15T02:33:25.135Z,233.40
2022-09-15T02:34:25.103Z,235.90
2022-09-15T02:35:25.107Z,233.30
2022-09-15T02:36:26.059Z,236.20
2022-09-15T02:37:25.108Z,237.40
2022-09-15T02:38:25.062Z,241.10
2022-09-15T02:39:25.047Z,253.00
2022-09-15T02:40:25.077Z,271.80
2022-09-15T02:41:25.019Z,288.90
2022-09-15T02:42:25.051Z,291.50
2022-09-15T02:43:24.992Z,284.40
2022-09-15T02:44:25.015Z,280.40
2022-09-15T02:45:25.024Z,269.30
2022-09-15T02:46:24.960Z,257.50
2022-09-15T02:47:24.994Z,248.10
2022-09-15T02:48:24.945Z,242.40
2022-09-15T02:49:24.956Z,234.80
2022-09-15T02:50:24.923Z,236.40
2022-09-15T02:51:24.926Z,244.10
2022-09-15T02:52:24.953Z,237.00
2022-09-15T02:53:24.882Z,234.00
2022-09-15T02:54:24.874Z,239.70
2022-09-15T02:55:24.869Z,250.50
2022-09-15T02:56:24.860Z,252.30
2022-09-15T02:57:24.889Z,269.30
2022-09-15T02:58:24.846Z,267.50
2022-09-15T02:59:24.818Z,274.10
2022-09-15T03:00:24.806Z,274.80
2022-09-15T03:01:24.856Z,295.20
2022-09-15T03:02:24.921Z,309.30
2022-09-15T03:03:24.786Z,304.30
2022-09-15T03:04:24.765Z,296.90
2022-09-15T03:05:24.772Z,285.80
2022-09-15T03:06:24.745Z,277.30
2022-09-15T03:07:24.770Z,269.10
2022-09-15T03:08:24.739Z,258.80
2022-09-15T03:09:24.707Z,246.20
2022-09-15T03:10:24.733Z,243.70
2022-09-15T03:11:24.685Z,245.70
2022-09-15T03:12:24.701Z,257.10
2022-09-15T03:13:24.655Z,257.00
2022-09-15T03:14:24.643Z,256.70
2022-09-15T03:15:24.634Z,258.60
2022-09-15T03:16:24.694Z,264.40
2022-09-15T03:17:24.655Z,255.50
2022-09-15T03:18:24.610Z,240.90
2022-09-15T03:19:24.612Z,246.50
2022-09-15T03:20:24.588Z,249.90
2022-09-15T03:21:24.585Z,241.80
2022-09-15T03:22:24.626Z,244.90
2022-09-15T03:23:24.556Z,236.40
2022-09-15T03:24:24.550Z,249.50
2022-09-15T03:25:24.530Z,252.80
2022-09-15T03:26:24.517Z,270.20
2022-09-15T03:27:24.553Z,278.80
2022-09-15T03:28:24.507Z,271.80
2022-09-15T03:29:24.489Z,275.70
2022-09-15T03:30:24.496Z,264.00
2022-09-15T03:31:24.550Z,266.30
2022-09-15T03:32:24.494Z,263.70
2022-09-15T03:33:24.448Z,268.70
2022-09-15T03:34:24.434Z,278.70
2022-09-15T03:35:24.422Z,290.40
2022-09-15T03:36:24.408Z,287.90
2022-09-15T03:37:24.429Z,282.20
2022-09-15T03:38:24.389Z,288.90
2022-09-15T03:39:24.395Z,281.30
2022-09-15T03:40:24.494Z,269.70
2022-09-15T03:41:24.343Z,260.30
2022-09-15T03:42:24.378Z,262.50
2022-09-15T03:43:24.331Z,259.30
2022-09-15T03:44:24.305Z,263.70
2022-09-15T03:45:24.333Z,260.40
2022-09-15T03:46:24.285Z,249.20
2022-09-15T03:47:24.337Z,267.90
2022-09-15T03:48:24.264Z,275.20
2022-09-15T03:49:24.273Z,310.80
2022-09-15T03:50:24.257Z,330.30
2022-09-15T03:51:24.249Z,330.90
2022-09-15T03:52:24.273Z,331.10
2022-09-15T03:53:24.194Z,329.00
2022-09-15T03:54:24.203Z,324.60
2022-09-15T03:55:24.211Z,328.70
2022-09-15T03:56:24.168Z,321.80
2022-09-15T03:57:24.214Z,298.40
2022-09-15T03:58:26.845Z,286.50
2022-09-15T03:59:25.133Z,279.20
2022-09-15T04:00:24.150Z,265.00
2022-09-15T04:01:24.175Z,256.90
2022-09-15T04:02:24.260Z,248.70
2022-09-15T04:03:24.125Z,254.10
2022-09-15T04:04:24.088Z,261.10
2022-09-15T04:05:24.099Z,291.40
2022-09-15T04:06:24.085Z,308.40
2022-09-15T04:07:24.098Z,323.30
2022-09-15T04:08:24.062Z,336.40
2022-09-15T04:09:24.039Z,349.90
2022-09-15T04:10:24.051Z,360.30
2022-09-15T04:11:24.021Z,358.10
2022-09-15T04:12:24.041Z,353.20
2022-09-15T04:13:28.419Z,371.80
2022-09-15T04:14:23.975Z,370.20
2022-09-15T04:15:23.954Z,374.60
2022-09-15T04:16:24.040Z,371.10
2022-09-15T04:17:23.957Z,371.10
2022-09-15T04:18:23.939Z,377.10
2022-09-15T04:19:23.935Z,377.40
2022-09-15T04:20:23.918Z,380.60
2022-09-15T04:21:23.896Z,387.50
2022-09-15T04:22:23.912Z,392.40
2022-09-15T04:23:23.865Z,384.00
2022-09-15T04:24:23.872Z,390.50
2022-09-15T04:25:23.849Z,389.90
2022-09-15T04:26:23.850Z,399.00
2022-09-15T04:27:23.861Z,430.70
2022-09-15T04:28:23.813Z,456.70
2022-09-15T04:29:23.811Z,490.50
2022-09-15T04:30:23.796Z,514.20
2022-09-15T04:31:23.888Z,531.10
2022-09-15T04:32:23.814Z,541.60
2022-09-15T04:33:23.771Z,552.50
2022-09-15T04:34:23.753Z,553.10
2022-09-15T04:35:23.737Z,564.30
2022-09-15T04:36:23.755Z,568.10
2022-09-15T04:37:23.797Z,569.20
2022-09-15T04:38:23.716Z,567.90
2022-09-15T04:39:23.699Z,561.30
2022-09-15T04:40:23.771Z,570.70
2022-09-15T04:41:23.673Z,580.60
2022-09-15T04:42:23.706Z,585.60
2022-09-15T04:43:23.639Z,589.90
2022-09-15T04:44:23.624Z,589.20
2022-09-15T04:45:23.631Z,596.50
2022-09-15T04:46:23.663Z,596.10
2022-09-15T04:47:23.613Z,602.70
2022-09-15T04:48:23.589Z,618.70
2022-09-15T04:49:23.578Z,607.70
2022-09-15T04:50:23.577Z,600.70
2022-09-15T04:51:23.561Z,584.60
2022-09-15T04:52:23.570Z,558.60
2022-09-15T04:53:23.531Z,540.40
2022-09-15T04:54:23.533Z,515.20
2022-09-15T04:55:23.498Z,483.50
2022-09-15T04:56:23.498Z,442.90
2022-09-15T04:57:23.508Z,410.90
2022-09-15T04:58:23.487Z,368.20
2022-09-15T04:59:23.471Z,353.50
2022-09-15T05:00:23.473Z,346.70
2022-09-15T05:01:23.508Z,340.80
2022-09-15T05:02:23.529Z,365.80
2022-09-15T05:03:23.430Z,393.70
2022-09-15T05:04:23.413Z,409.70
2022-09-15T05:05:23.387Z,420.70
2022-09-15T05:06:23.388Z,425.70
2022-09-15T05:07:23.419Z,416.00
2022-09-15T05:08:23.371Z,410.70
2022-09-15T05:09:23.363Z,414.10
2022-09-15T05:10:23.349Z,408.80
2022-09-15T05:11:23.332Z,400.70
2022-09-15T05:12:23.368Z,384.80
2022-09-15T05:13:23.310Z,368.60
2022-09-15T05:14:23.289Z,363.00
2022-09-15T05:15:23.292Z,356.50
2022-09-15T05:16:23.346Z,356.10
2022-09-15T05:17:26.685Z,359.80
2022-09-15T05:18:23.269Z,355.60
2022-09-15T05:19:23.247Z,363.50
2022-09-15T05:20:23.217Z,378.90
2022-09-15T05:21:23.213Z,394.70
2022-09-15T05:22:23.219Z,401.50
2022-09-15T05:23:23.271Z,406.00
2022-09-15T05:24:23.191Z,415.70
2022-09-15T05:25:23.177Z,417.30
2022-09-15T05:26:23.158Z,420.80
2022-09-15T05:27:23.155Z,418.00
2022-09-15T05:28:23.178Z,418.00
2022-09-15T05:29:23.136Z,421.30
2022-09-15T05:30:37.749Z,416.00
2022-09-15T05:31:24.166Z,417.50
2022-09-15T05:32:23.095Z,416.30
2022-09-15T05:33:23.116Z,406.40
2022-09-15T05:34:23.068Z,411.90
2022-09-15T05:35:23.050Z,408.90
2022-09-15T05:36:23.048Z,407.30
2022-09-15T05:37:23.036Z,392.30
2022-09-15T05:38:23.060Z,396.80
2022-09-15T05:39:23.017Z,377.80
2022-09-15T05:40:23.123Z,362.60
2022-09-15T05:41:22.984Z,354.40
2022-09-15T05:42:22.960Z,340.20
2022-09-15T05:43:23.004Z,338.50
2022-09-15T05:44:22.933Z,341.80
2022-09-15T05:45:22.954Z,332.30
2022-09-15T05:46:22.964Z,334.50
2022-09-15T05:47:22.935Z,330.30
2022-09-15T05:48:22.932Z,315.70
2022-09-15T05:49:22.892Z,320.30
2022-09-15T05:50:22.864Z,311.80
2022-09-15T05:51:22.874Z,315.10
2022-09-15T05:52:22.857Z,319.10
2022-09-15T05:53:22.896Z,319.70
2022-09-15T05:54:22.854Z,319.80
2022-09-15T05:55:22.826Z,326.80
2022-09-15T05:56:22.840Z,335.50
2022-09-15T05:57:22.794Z,333.00
2022-09-15T05:58:22.822Z,353.90
2022-09-15T05:59:22.798Z,370.30
2022-09-15T06:00:22.772Z,391.80
2022-09-15T06:01:22.848Z,434.00
2022-09-15T06:02:22.797Z,439.90
2022-09-15T06:03:24.487Z,451.20
2022-09-15T06:04:22.728Z,442.20
2022-09-15T06:05:22.711Z,440.90
2022-09-15T06:06:22.712Z,438.30
2022-09-15T06:07:22.689Z,431.20
2022-09-15T06:08:22.726Z,426.50
2022-09-15T06:09:22.703Z,420.20
2022-09-15T06:10:22.677Z,405.20
2022-09-15T06:11:22.646Z,394.50
2022-09-15T06:12:22.612Z,397.60
2022-09-15T06:13:22.651Z,370.10
2022-09-15T06:14:22.599Z,343.80
2022-09-15T06:15:22.613Z,298.10
2022-09-15T06:16:22.681Z,284.80
2022-09-15T06:17:22.596Z,253.20
2022-09-15T06:18:22.626Z,253.10
2022-09-15T06:19:22.558Z,274.80
2022-09-15T06:20:22.527Z,223.20
2022-09-15T06:21:22.519Z,234.20
2022-09-15T06:22:22.526Z,244.70
2022-09-15T06:23:22.518Z,214.20
2022-09-15T06:24:22.534Z,78.30
2022-09-15T06:25:22.509Z,158.00
2022-09-15T06:26:22.461Z,196.00
2022-09-15T06:27:22.471Z,158.30
2022-09-15T06:28:22.448Z,312.20
2022-09-15T06:29:22.484Z,258.60
2022-09-15T06:30:22.435Z,231.50
2022-09-15T06:31:22.462Z,162.60
2022-09-15T06:32:22.405Z,139.50
2022-09-15T06:33:22.394Z,137.40
2022-09-15T06:34:22.418Z,101.30
2022-09-15T06:35:22.386Z,181.50
2022-09-15T06:36:22.385Z,233.50
2022-09-15T06:37:22.350Z,162.90
2022-09-15T06:38:22.350Z,121.40
2022-09-15T06:39:22.386Z,148.60
2022-09-15T06:40:22.381Z,305.80
2022-09-15T06:41:22.320Z,355.90
2022-09-15T06:42:22.299Z,367.40
2022-09-15T06:43:22.290Z,336.90
2022-09-15T06:44:22.333Z,117.40
2022-09-15T06:45:22.275Z,238.70
2022-09-15T06:46:22.286Z,332.60
2022-09-15T06:47:22.247Z,352.60
2022-09-15T06:48:24.837Z,353.40
2022-09-15T06:49:22.251Z,194.50
2022-09-15T06:50:22.208Z,158.30
2022-09-15T06:51:22.180Z,159.70
2022-09-15T06:52:22.170Z,241.20
2022-09-15T06:53:22.160Z,273.00
2022-09-15T06:54:22.179Z,169.60
2022-09-15T06:55:22.175Z,232.80
2022-09-15T06:56:22.151Z,275.90
2022-09-15T06:57:22.143Z,258.30
2022-09-15T06:58:22.152Z,94.40
2022-09-15T06:59:22.119Z,283.80
2022-09-15T07:00:22.093Z,292.60
2022-09-15T07:01:22.088Z,291.80
2022-09-15T07:02:22.198Z,203.20
2022-09-15T07:03:22.215Z,188.90
2022-09-15T07:04:22.042Z,88.80
2022-09-15T07:05:22.028Z,271.30
2022-09-15T07:06:22.045Z,92.40
2022-09-15T07:07:22.012Z,208.90
2022-09-15T07:08:22.036Z,278.60
2022-09-15T07:09:21.988Z,292.80
2022-09-15T07:10:21.990Z,127.50
2022-09-15T07:11:21.971Z,206.10
2022-09-15T07:12:21.939Z,284.90
2022-09-15T07:13:21.991Z,302.20
2022-09-15T07:14:21.919Z,123.60
2022-09-15T07:15:21.922Z,293.90
2022-09-15T07:16:21.985Z,94.90
2022-09-15T07:17:21.912Z,219.50
2022-09-15T07:18:21.902Z,172.50
2022-09-15T07:19:21.909Z,71.80
2022-09-15T07:20:21.859Z,107.10
2022-09-15T07:21:21.851Z,103.40
2022-09-15T07:22:21.852Z,110.10
2022-09-15T07:23:21.819Z,132.70
2022-09-15T07:24:21.840Z,183.50
2022-09-15T07:25:21.798Z,246.10
2022-09-15T07:26:21.786Z,227.70
2022-09-15T07:27:21.793Z,136.70
2022-09-15T07:28:21.769Z,164.40
2022-09-15T07:29:21.803Z,113.20
2022-09-15T07:30:21.752Z,118.80
2022-09-15T07:31:21.768Z,91.60
2022-09-15T07:32:21.730Z,102.30
2022-09-15T07:33:21.736Z,107.70
2022-09-15T07:34:21.753Z,139.60
2022-09-15T07:35:21.711Z,123.20
2022-09-15T07:36:21.683Z,119.90
2022-09-15T07:37:21.677Z,117.70
2022-09-15T07:38:21.668Z,117.60
2022-09-15T07:39:21.699Z,124.50
2022-09-15T07:40:21.731Z,119.80
2022-09-15T07:41:21.661Z,116.00
2022-09-15T07:42:21.631Z,119.10
2022-09-15T07:43:21.614Z,101.40
2022-09-15T07:44:21.638Z,114.80
2022-09-15T07:45:21.625Z,63.70
2022-09-15T07:46:21.570Z,95.70
2022-09-15T07:47:21.573Z,59.70
2022-09-15T07:48:25.778Z,69.10
2022-09-15T07:49:22.588Z,61.50
2022-09-15T07:50:21.529Z,61.70
2022-09-15T07:51:21.514Z,59.20
2022-09-15T07:52:21.510Z,60.40
2022-09-15T07:53:21.491Z,50.00
2022-09-15T07:54:23.002Z,47.20
2022-09-15T07:55:21.462Z,78.70
2022-09-15T07:56:21.448Z,51.20
2022-09-15T07:57:21.443Z,66.20
2022-09-15T07:58:21.421Z,75.90
2022-09-15T07:59:21.459Z,32.20
2022-09-15T08:00:21.401Z,44.60
2022-09-15T08:01:21.433Z,42.90
2022-09-15T08:02:21.501Z,33.60
2022-09-15T08:03:21.399Z,35.70
2022-09-15T08:04:21.419Z,31.00
2022-09-15T08:05:21.352Z,28.40
2022-09-15T08:06:21.347Z,28.80
2022-09-15T08:07:21.322Z,29.00
2022-09-15T08:08:21.304Z,29.70
2022-09-15T08:09:21.351Z,22.00
2022-09-15T08:10:21.349Z,22.30
2022-09-15T08:11:21.293Z,23.20
2022-09-15T08:12:21.292Z,23.70
2022-09-15T08:13:21.280Z,27.00
2022-09-15T08:14:21.288Z,28.50
2022-09-15T08:15:21.263Z,30.60
2022-09-15T08:16:21.271Z,36.70
2022-09-15T08:17:21.234Z,36.10
2022-09-15T08:18:21.215Z,41.10
2022-09-15T08:19:21.247Z,39.40
2022-09-15T08:20:21.241Z,36.00
2022-09-15T08:21:21.213Z,37.40
2022-09-15T08:22:21.160Z,40.40
2022-09-15T08:23:21.159Z,39.00
2022-09-15T08:24:21.167Z,38.50
2022-09-15T08:25:21.132Z,33.50
2022-09-15T08:26:21.146Z,28.00
2022-09-15T08:27:21.134Z,26.20
2022-09-15T08:28:21.087Z,23.00
2022-09-15T08:29:21.112Z,22.80
2022-09-15T08:30:21.075Z,20.60
2022-09-15T08:31:21.112Z,20.60
2022-09-15T08:32:21.051Z,21.40
2022-09-15T08:33:21.042Z,18.90
2022-09-15T08:34:21.066Z,20.60
2022-09-15T08:35:21.044Z,15.50
2022-09-15T08:36:21.007Z,15.50
2022-09-15T08:37:20.987Z,14.70
2022-09-15T08:38:20.987Z,14.90
2022-09-15T08:39:21.023Z,15.00
2022-09-15T08:40:21.120Z,16.80
2022-09-15T08:41:20.948Z,19.10
2022-09-15T08:42:20.942Z,18.30
2022-09-15T08:43:20.933Z,16.00
2022-09-15T08:44:20.959Z,26.90
2022-09-15T08:45:20.910Z,34.30
2022-09-15T08:46:20.918Z,30.10
2022-09-15T08:47:20.899Z,109.60
2022-09-15T08:48:20.863Z,692.90
2022-09-15T08:49:35.766Z,265.00
2022-09-15T08:50:21.848Z,100.50
2022-09-15T08:51:20.843Z,999.90
2022-09-15T08:52:20.819Z,999.90
2022-09-15T08:53:20.871Z,823.90
2022-09-15T08:54:20.814Z,999.90
2022-09-15T08:55:20.782Z,756.30
2022-09-15T08:56:20.791Z,999.90
2022-09-15T08:57:20.772Z,999.90
2022-09-15T08:58:20.786Z,999.90
2022-09-15T08:59:20.734Z,999.90
2022-09-15T09:00:20.719Z,999.90
2022-09-15T09:01:20.763Z,999.90
2022-09-15T09:02:20.743Z,999.90
2022-09-15T09:03:20.735Z,999.90
2022-09-15T09:04:20.684Z,999.90
2022-09-15T09:05:20.676Z,999.90
2022-09-15T09:06:20.673Z,999.90
2022-09-15T09:07:20.674Z,999.90
2022-09-15T09:08:20.688Z,999.90
2022-09-15T09:09:20.659Z,999.90
2022-09-15T09:10:20.619Z,999.90
2022-09-15T09:11:20.618Z,999.90
2022-09-15T09:12:20.636Z,999.90
2022-09-15T09:13:20.633Z,999.90
2022-09-15T09:14:20.594Z,999.90
2022-09-15T09:15:20.575Z,999.90
2022-09-15T09:16:20.654Z,999.90
2022-09-15T09:17:20.570Z,999.90
2022-09-15T09:18:20.572Z,999.90
2022-09-15T09:19:20.543Z,999.90
2022-09-15T09:20:20.508Z,999.90
2022-09-15T09:21:20.509Z,999.90
2022-09-15T09:22:20.488Z,999.90
2022-09-15T09:23:20.525Z,999.90
2022-09-15T09:24:20.466Z,999.90
2022-09-15T09:25:28.463Z,999.90
2022-09-15T09:26:21.450Z,999.90
2022-09-15T09:27:20.451Z,999.90
2022-09-15T09:28:20.481Z,999.90
2022-09-15T09:29:20.424Z,999.90
2022-09-15T09:30:20.422Z,999.90
2022-09-15T09:31:20.446Z,999.90
2022-09-15T09:32:21.847Z,999.90
2022-09-15T09:33:20.386Z,999.90
2022-09-15T09:34:20.375Z,999.90
2022-09-15T09:35:20.347Z,999.90
2022-09-15T09:36:20.351Z,999.90
2022-09-15T09:37:20.330Z,999.90
2022-09-15T09:38:20.357Z,999.90
2022-09-15T09:39:20.304Z,999.90
2022-09-15T09:40:20.373Z,999.90
2022-09-15T09:41:20.292Z,999.90
2022-09-15T09:42:20.273Z,999.90
2022-09-15T09:43:20.291Z,999.90
2022-09-15T09:44:20.241Z,999.90
2022-09-15T09:45:20.250Z,999.90
2022-09-15T09:46:20.293Z,999.90
2022-09-15T09:47:20.212Z,999.90
2022-09-15T09:48:20.232Z,999.90
2022-09-15T09:49:20.194Z,999.90
2022-09-15T09:50:20.185Z,999.90
2022-09-15T09:51:20.178Z,999.90
2022-09-15T09:52:22.077Z,999.90
2022-09-15T09:53:20.229Z,999.90
2022-09-15T09:54:20.152Z,999.90
2022-09-15T09:55:20.131Z,999.90
2022-09-15T09:56:20.108Z,999.90
2022-09-15T09:57:20.103Z,999.90
2022-09-15T09:58:20.166Z,999.90
2022-09-15T09:59:20.088Z,999.90
2022-09-15T10:00:20.079Z,999.90
2022-09-15T10:01:20.139Z,999.90
2022-09-15T10:02:20.060Z,999.90
2022-09-15T10:03:20.054Z,999.90
2022-09-15T10:04:20.035Z,999.90
2022-09-15T10:05:20.022Z,999.90
2022-09-15T10:06:20.019Z,999.90
2022-09-15T10:07:19.985Z,999.90
2022-09-15T10:08:20.012Z,999.90
2022-09-15T10:09:19.965Z,999.90
2022-09-15T10:10:19.964Z,406.60
2022-09-15T10:11:19.943Z,832.40
2022-09-15T10:12:19.944Z,431.00
2022-09-15T10:13:19.933Z,78.00
2022-09-15T10:14:19.970Z,76.00
2022-09-15T10:15:19.900Z,54.00
2022-09-15T10:16:19.935Z,27.90
2022-09-15T10:17:19.891Z,21.50
2022-09-15T10:18:19.872Z,34.80
2022-09-15T10:19:19.888Z,18.00
2022-09-15T10:20:19.852Z,28.30
2022-09-15T10:21:19.843Z,51.80
2022-09-15T10:22:19.855Z,44.50
2022-09-15T10:23:19.816Z,109.90
2022-09-15T10:24:19.834Z,249.50
2022-09-15T10:25:19.788Z,999.90
2022-09-15T10:26:19.800Z,999.90
2022-09-15T10:27:19.771Z,999.90
2022-09-15T10:28:19.769Z,999.90
2022-09-15T10:29:19.771Z,999.90
2022-09-15T10:30:19.745Z,999.90
2022-09-15T10:31:19.763Z,999.90
2022-09-15T10:32:24.327Z,999.90
2022-09-15T10:33:20.713Z,999.90
2022-09-15T10:34:19.717Z,999.90
2022-09-15T10:35:19.659Z,999.90
2022-09-15T10:36:19.668Z,999.90
2022-09-15T10:37:19.646Z,999.90
2022-09-15T10:38:19.657Z,999.90
2022-09-15T10:39:19.678Z,999.90
2022-09-15T10:40:19.691Z,999.90
2022-09-15T10:41:19.614Z,999.90
2022-09-15T10:42:19.634Z,999.90
2022-09-15T10:43:19.579Z,999.90
2022-09-15T10:44:19.657Z,999.90
2022-09-15T10:45:19.546Z,999.90
2022-09-15T10:46:19.634Z,999.90
2022-09-15T10:47:19.522Z,999.90
2022-09-15T10:48:19.539Z,999.90
2022-09-15T10:49:19.551Z,999.90
2022-09-15T10:50:19.514Z,999.90
2022-09-15T10:51:19.506Z,999.90
2022-09-15T10:52:19.512Z,999.90
2022-09-15T10:53:19.507Z,999.90
2022-09-15T10:54:19.521Z,999.90
2022-09-15T10:55:31.801Z,999.90
2022-09-15T10:56:20.458Z,999.90
2022-09-15T10:57:19.495Z,999.90
2022-09-15T10:58:19.433Z,999.90
2022-09-15T10:59:19.447Z,999.90
2022-09-15T11:00:19.420Z,999.90
2022-09-15T11:01:19.412Z,999.90
2022-09-15T11:02:19.491Z,999.90
2022-09-15T11:03:19.366Z,999.90
2022-09-15T11:04:19.381Z,999.90
2022-09-15T11:05:22.023Z,999.90
2022-09-15T11:06:19.331Z,999.90
2022-09-15T11:07:19.304Z,999.90
2022-09-15T11:08:19.341Z,999.90
2022-09-15T11:09:19.332Z,999.90
2022-09-15T11:10:19.284Z,999.90
2022-09-15T11:11:19.289Z,999.90
2022-09-15T11:12:19.284Z,999.90
2022-09-15T11:13:19.242Z,999.90
2022-09-15T11:14:19.294Z,999.90
2022-09-15T11:15:19.234Z,999.90
2022-09-15T11:16:19.285Z,999.90
2022-09-15T11:17:19.206Z,999.90
2022-09-15T11:18:19.216Z,999.90
2022-09-15T11:19:19.239Z,999.90
2022-09-15T11:20:19.198Z,999.90
2022-09-15T11:21:19.173Z,999.90
2022-09-15T11:22:19.176Z,999.90
2022-09-15T11:23:19.139Z,999.90
2022-09-15T11:24:19.171Z,999.90
2022-09-15T11:25:19.121Z,901.50
2022-09-15T11:26:19.118Z,999.90
2022-09-15T11:27:19.135Z,999.90
2022-09-15T11:28:19.100Z,845.60
2022-09-15T11:29:19.103Z,57.70
2022-09-15T11:30:19.090Z,47.50
2022-09-15T11:31:19.088Z,50.20
2022-09-15T11:32:19.101Z,51.50
2022-09-15T11:33:19.059Z,75.70
2022-09-15T11:34:19.087Z,54.50
2022-09-15T11:35:19.016Z,37.40
2022-09-15T11:36:19.010Z,66.00
2022-09-15T11:37:18.976Z,84.20
2022-09-15T11:38:18.966Z,69.90
2022-09-15T11:39:18.987Z,65.40
2022-09-15T11:40:19.076Z,74.70
2022-09-15T11:41:18.924Z,57.80
2022-09-15T11:42:18.965Z,30.50
2022-09-15T11:43:18.917Z,39.40
2022-09-15T11:44:18.947Z,39.60
2022-09-15T11:45:18.896Z,38.30
2022-09-15T11:46:18.981Z,36.60
2022-09-15T11:47:18.874Z,39.60
2022-09-15T11:48:18.881Z,47.20
2022-09-15T11:49:18.893Z,51.20
2022-09-15T11:50:18.840Z,55.90
2022-09-15T11:51:18.854Z,63.40
2022-09-15T11:52:18.875Z,65.70
2022-09-15T11:53:18.820Z,69.60
2022-09-15T11:54:18.827Z,58.80
2022-09-15T11:55:18.778Z,60.80
2022-09-15T11:56:18.783Z,70.10
2022-09-15T11:57:18.759Z,65.30
2022-09-15T11:58:22.005Z,65.50
2022-09-15T11:59:18.779Z,27.80
2022-09-15T12:00:18.742Z,66.90
2022-09-15T12:01:18.713Z,69.40
2022-09-15T12:02:18.776Z,65.60
2022-09-15T12:03:18.743Z,48.10
2022-09-15T12:04:18.734Z,45.10
2022-09-15T12:05:19.497Z,50.90
2022-09-15T12:06:18.655Z,51.20
2022-09-15T12:07:18.658Z,45.60
2022-09-15T12:08:18.627Z,35.80
2022-09-15T12:09:18.654Z,36.80
2022-09-15T12:10:18.618Z,42.60
2022-09-15T12:11:18.593Z,43.20
2022-09-15T12:12:18.689Z,60.80
2022-09-15T12:13:18.585Z,74.60
2022-09-15T12:14:18.618Z,78.10
2022-09-15T12:15:18.564Z,105.20
2022-09-15T12:16:18.621Z,109.60
2022-09-15T12:17:18.528Z,126.20
2022-09-15T12:18:37.123Z,473.00
2022-09-15T12:19:19.546Z,966.10
2022-09-15T12:20:18.513Z,999.90
2022-09-15T12:21:18.510Z,637.90
2022-09-15T12:22:18.634Z,368.50
2022-09-15T12:23:18.453Z,999.90
2022-09-15T12:24:18.513Z,999.90
2022-09-15T12:25:18.454Z,999.90
2022-09-15T12:26:18.458Z,999.90
2022-09-15T12:27:18.432Z,999.90
2022-09-15T12:28:18.493Z,999.90
2022-09-15T12:29:18.440Z,999.90
2022-09-15T12:30:18.407Z,999.90
2022-09-15T12:31:18.411Z,999.90
2022-09-15T12:32:18.390Z,999.90